sensor_id;sensor_type;location;lat;lon;timestamp;pressure;altitude;pressure_sealevel;temperature;humidity
83635;BME280;73596;49.482;11.238;2024-01-11T00:00:35;99073.94;;;-5.63;78.58
83635;BME280;73596;49.482;11.238;2024-01-11T00:03:00;99084.00;;;-5.63;78.73
83635;BME280;73596;49.482;11.238;2024-01-11T00:05:26;99089.88;;;-5.61;78.58
83635;BME280;73596;49.482;11.238;2024-01-11T00:07:51;99090.69;;;-5.65;78.37
83635;BME280;73596;49.482;11.238;2024-01-11T00:10:17;99092.34;;;-5.65;78.72
83635;BME280;73596;49.482;11.238;2024-01-11T00:12:42;99087.31;;;-5.67;78.37
83635;BME280;73596;49.482;11.238;2024-01-11T00:15:08;99091.53;;;-5.63;78.95
83635;BME280;73596;49.482;11.238;2024-01-11T00:17:33;99093.22;;;-5.63;78.87
83635;BME280;73596;49.482;11.238;2024-01-11T00:19:59;99094.06;;;-5.63;78.24
83635;BME280;73596;49.482;11.238;2024-01-11T00:22:24;99094.09;;;-5.60;78.42
83635;BME280;73596;49.482;11.238;2024-01-11T00:24:49;99099.97;;;-5.59;78.10
83635;BME280;73596;49.482;11.238;2024-01-11T00:27:15;99090.75;;;-5.57;78.10
83635;BME280;73596;49.482;11.238;2024-01-11T00:29:40;99092.44;;;-5.56;78.26
83635;BME280;73596;49.482;11.238;2024-01-11T00:32:05;99091.59;;;-5.55;78.08
83635;BME280;73596;49.482;11.238;2024-01-11T00:34:31;99081.53;;;-5.55;78.30
83635;BME280;73596;49.482;11.238;2024-01-11T00:36:56;99089.91;;;-5.59;78.34
83635;BME280;73596;49.482;11.238;2024-01-11T00:39:21;99090.75;;;-5.57;78.20
83635;BME280;73596;49.482;11.238;2024-01-11T00:41:46;99094.94;;;-5.58;78.36
83635;BME280;73596;49.482;11.238;2024-01-11T00:44:12;99090.75;;;-5.57;78.36
83635;BME280;73596;49.482;11.238;2024-01-11T00:46:37;99096.56;;;-5.61;78.04
83635;BME280;73596;49.482;11.238;2024-01-11T00:49:03;99100.75;;;-5.63;78.80
83635;BME280;73596;49.482;11.238;2024-01-11T00:51:28;99104.97;;;-5.62;78.18
83635;BME280;73596;49.482;11.238;2024-01-11T00:53:54;99104.94;;;-5.64;77.99
83635;BME280;73596;49.482;11.238;2024-01-11T00:56:19;99104.94;;;-5.65;78.43
83635;BME280;73596;49.482;11.238;2024-01-11T00:58:45;99102.38;;;-5.68;78.79
83635;BME280;73596;49.482;11.238;2024-01-11T01:01:11;99096.50;;;-5.70;78.54
83635;BME280;73596;49.482;11.238;2024-01-11T01:03:36;99097.31;;;-5.71;78.51
83635;BME280;73596;49.482;11.238;2024-01-11T01:06:02;99094.00;;;-5.70;78.75
83635;BME280;73596;49.482;11.238;2024-01-11T01:08:27;99088.13;;;-5.66;78.08
83635;BME280;73596;49.482;11.238;2024-01-11T01:10:53;99093.16;;;-5.66;78.12
83635;BME280;73596;49.482;11.238;2024-01-11T01:13:18;99099.03;;;-5.69;78.52
83635;BME280;73596;49.482;11.238;2024-01-11T01:15:43;99099.88;;;-5.68;78.42
83635;BME280;73596;49.482;11.238;2024-01-11T01:18:09;99095.69;;;-5.69;78.56
83635;BME280;73596;49.482;11.238;2024-01-11T01:20:34;99097.34;;;-5.70;78.53
83635;BME280;73596;49.482;11.238;2024-01-11T01:22:59;99090.66;;;-5.68;78.65
83635;BME280;73596;49.482;11.238;2024-01-11T01:25:24;99098.16;;;-5.71;78.22
83635;BME280;73596;49.482;11.238;2024-01-11T01:27:50;99099.00;;;-5.72;78.70
83635;BME280;73596;49.482;11.238;2024-01-11T01:30:15;99105.69;;;-5.74;78.87
83635;BME280;73596;49.482;11.238;2024-01-11T01:32:41;99105.69;;;-5.75;78.75
83635;BME280;73596;49.482;11.238;2024-01-11T01:35:06;99101.44;;;-5.81;78.68
83635;BME280;73596;49.482;11.238;2024-01-11T01:37:32;99104.78;;;-5.82;78.49
83635;BME280;73596;49.482;11.238;2024-01-11T01:39:58;99106.50;;;-5.80;78.78
83635;BME280;73596;49.482;11.238;2024-01-11T01:42:23;99107.31;;;-5.79;79.08
83635;BME280;73596;49.482;11.238;2024-01-11T01:44:48;99109.88;;;-5.76;78.73
83635;BME280;73596;49.482;11.238;2024-01-11T01:47:13;99109.00;;;-5.78;78.56
83635;BME280;73596;49.482;11.238;2024-01-11T01:49:39;99099.75;;;-5.79;78.77
83635;BME280;73596;49.482;11.238;2024-01-11T01:52:05;99098.09;;;-5.79;78.42
83635;BME280;73596;49.482;11.238;2024-01-11T01:54:32;99108.19;;;-5.77;79.00
83635;BME280;73596;49.482;11.238;2024-01-11T01:56:57;99108.19;;;-5.77;78.49
83635;BME280;73596;49.482;11.238;2024-01-11T01:59:25;99101.47;;;-5.80;78.53
83635;BME280;73596;49.482;11.238;2024-01-11T02:01:51;99097.25;;;-5.85;78.43
83635;BME280;73596;49.482;11.238;2024-01-11T02:04:17;99098.88;;;-5.84;79.20
83635;BME280;73596;49.482;11.238;2024-01-11T02:06:45;99099.78;;;-5.78;78.99
83635;BME280;73596;49.482;11.238;2024-01-11T02:09:12;99101.47;;;-5.78;78.81
83635;BME280;73596;49.482;11.238;2024-01-11T02:11:38;99095.53;;;-5.82;78.56
83635;BME280;73596;49.482;11.238;2024-01-11T02:14:04;99101.47;;;-5.80;79.21
83635;BME280;73596;49.482;11.238;2024-01-11T02:16:29;99096.44;;;-5.80;78.57
83635;BME280;73596;49.482;11.238;2024-01-11T02:18:54;99101.47;;;-5.80;79.04
83635;BME280;73596;49.482;11.238;2024-01-11T02:21:22;99094.72;;;-5.82;79.32
83635;BME280;73596;49.482;11.238;2024-01-11T02:24:03;99093.03;;;-5.86;79.01
83635;BME280;73596;49.482;11.238;2024-01-11T02:26:29;99093.84;;;-5.90;79.29
83635;BME280;73596;49.482;11.238;2024-01-11T02:28:54;99096.31;;;-5.95;79.21
83635;BME280;73596;49.482;11.238;2024-01-11T02:31:19;99097.13;;;-5.97;79.60
83635;BME280;73596;49.482;11.238;2024-01-11T02:33:45;99096.22;;;-6.02;79.38
83635;BME280;73596;49.482;11.238;2024-01-11T02:36:10;99098.66;;;-6.07;79.37
83635;BME280;73596;49.482;11.238;2024-01-11T02:38:36;99089.41;;;-6.12;79.65
83635;BME280;73596;49.482;11.238;2024-01-11T02:41:02;99091.88;;;-6.15;79.97
83635;BME280;73596;49.482;11.238;2024-01-11T02:43:28;99090.19;;;-6.16;80.21
83635;BME280;73596;49.482;11.238;2024-01-11T02:45:56;99092.69;;;-6.18;79.99
83635;BME280;73596;49.482;11.238;2024-01-11T02:48:27;99085.16;;;-6.18;80.49
83635;BME280;73596;49.482;11.238;2024-01-11T02:50:52;99087.66;;;-6.18;80.33
83635;BME280;73596;49.482;11.238;2024-01-11T02:53:18;99087.66;;;-6.18;80.09
83635;BME280;73596;49.482;11.238;2024-01-11T02:55:43;99080.91;;;-6.23;79.80
83635;BME280;73596;49.482;11.238;2024-01-11T02:58:08;99081.72;;;-6.26;80.47
83635;BME280;73596;49.482;11.238;2024-01-11T03:00:33;99076.63;;;-6.29;80.14
83635;BME280;73596;49.482;11.238;2024-01-11T03:02:58;99082.47;;;-6.31;80.35
83635;BME280;73596;49.482;11.238;2024-01-11T03:05:24;99085.00;;;-6.31;81.20
83635;BME280;73596;49.482;11.238;2024-01-11T03:07:49;99088.31;;;-6.34;80.91
83635;BME280;73596;49.482;11.238;2024-01-11T03:10:14;99086.66;;;-6.33;81.57
83635;BME280;73596;49.482;11.238;2024-01-11T03:12:40;99089.97;;;-6.34;81.03
83635;BME280;73596;49.482;11.238;2024-01-11T03:15:05;99086.66;;;-6.33;80.68
83635;BME280;73596;49.482;11.238;2024-01-11T03:17:31;99090.00;;;-6.33;81.19
83635;BME280;73596;49.482;11.238;2024-01-11T03:19:57;99079.09;;;-6.35;80.96
83635;BME280;73596;49.482;11.238;2024-01-11T03:22:22;99080.72;;;-6.38;80.83
83635;BME280;73596;49.482;11.238;2024-01-11T03:24:47;99078.16;;;-6.41;80.51
83635;BME280;73596;49.482;11.238;2024-01-11T03:27:13;99086.56;;;-6.39;80.93
83635;BME280;73596;49.482;11.238;2024-01-11T03:29:38;99081.53;;;-6.41;81.46
83635;BME280;73596;49.482;11.238;2024-01-11T03:32:04;99078.16;;;-6.41;81.62
83635;BME280;73596;49.482;11.238;2024-01-11T03:34:29;99075.66;;;-6.41;81.42
83635;BME280;73596;49.482;11.238;2024-01-11T03:36:54;99073.09;;;-6.45;81.76
83635;BME280;73596;49.482;11.238;2024-01-11T03:39:19;99078.09;;;-6.48;81.77
83635;BME280;73596;49.482;11.238;2024-01-11T03:41:45;99071.34;;;-6.53;81.42
83635;BME280;73596;49.482;11.238;2024-01-11T03:44:10;99075.47;;;-6.55;81.28
83635;BME280;73596;49.482;11.238;2024-01-11T03:46:36;99078.78;;;-6.58;81.89
83635;BME280;73596;49.482;11.238;2024-01-11T03:49:02;99067.84;;;-6.63;81.38
83635;BME280;73596;49.482;11.238;2024-01-11T03:51:27;99064.47;;;-6.66;82.24
83635;BME280;73596;49.482;11.238;2024-01-11T03:53:52;99070.25;;;-6.72;81.83
83635;BME280;73596;49.482;11.238;2024-01-11T03:56:17;99073.56;;;-6.76;82.17
83635;BME280;73596;49.482;11.238;2024-01-11T03:58:43;99074.38;;;-6.78;81.99
83635;BME280;73596;49.482;11.238;2024-01-11T04:01:10;99070.06;;;-6.85;81.72
83635;BME280;73596;49.482;11.238;2024-01-11T04:03:35;99065.81;;;-6.91;81.84
83635;BME280;73596;49.482;11.238;2024-01-11T04:06:01;99069.06;;;-6.98;81.49
83635;BME280;73596;49.482;11.238;2024-01-11T04:08:26;99067.31;;;-7.03;81.37
83635;BME280;73596;49.482;11.238;2024-01-11T04:10:52;99063.91;;;-7.08;81.59
83635;BME280;73596;49.482;11.238;2024-01-11T04:13:17;99070.66;;;-7.04;82.90
83635;BME280;73596;49.482;11.238;2024-01-11T04:15:42;99074.81;;;-7.06;82.28
83635;BME280;73596;49.482;11.238;2024-01-11T04:18:07;99070.59;;;-7.07;82.78
83635;BME280;73596;49.482;11.238;2024-01-11T04:20:33;99064.66;;;-7.13;82.88
83635;BME280;73596;49.482;11.238;2024-01-11T04:22:58;99072.25;;;-7.10;82.50
83635;BME280;73596;49.482;11.238;2024-01-11T04:25:23;99080.59;;;-7.11;82.75
83635;BME280;73596;49.482;11.238;2024-01-11T04:27:48;99080.53;;;-7.15;82.56
83635;BME280;73596;49.482;11.238;2024-01-11T04:30:14;99077.97;;;-7.20;82.42
83635;BME280;73596;49.482;11.238;2024-01-11T04:32:39;99075.41;;;-7.23;82.72
83635;BME280;73596;49.482;11.238;2024-01-11T04:35:05;99086.22;;;-7.25;83.14
83635;BME280;73596;49.482;11.238;2024-01-11T04:37:30;99089.59;;;-7.26;83.29
83635;BME280;73596;49.482;11.238;2024-01-11T04:39:55;99091.19;;;-7.28;83.11
83635;BME280;73596;49.482;11.238;2024-01-11T04:42:25;99095.41;;;-7.27;84.05
83635;BME280;73596;49.482;11.238;2024-01-11T04:44:50;99102.94;;;-7.26;84.22
83635;BME280;73596;49.482;11.238;2024-01-11T04:47:15;99102.94;;;-7.29;84.51
83635;BME280;73596;49.482;11.238;2024-01-11T04:49:41;99102.03;;;-7.32;84.78
83635;BME280;73596;49.482;11.238;2024-01-11T04:52:06;99107.03;;;-7.32;84.79
83635;BME280;73596;49.482;11.238;2024-01-11T04:54:31;99108.69;;;-7.34;84.45
83635;BME280;73596;49.482;11.238;2024-01-11T04:56:56;99101.09;;;-7.39;83.91
83635;BME280;73596;49.482;11.238;2024-01-11T04:59:22;99094.31;;;-7.44;83.51
83635;BME280;73596;49.482;11.238;2024-01-11T05:01:48;99102.63;;;-7.45;83.66
83635;BME280;73596;49.482;11.238;2024-01-11T05:04:13;99106.00;;;-7.46;83.85
83635;BME280;73596;49.482;11.238;2024-01-11T05:06:38;99109.28;;;-7.49;84.11
83635;BME280;73596;49.482;11.238;2024-01-11T05:09:03;99103.38;;;-7.51;84.19
83635;BME280;73596;49.482;11.238;2024-01-11T05:11:29;99101.66;;;-7.53;84.13
83635;BME280;73596;49.482;11.238;2024-01-11T05:13:55;99099.94;;;-7.56;84.13
83635;BME280;73596;49.482;11.238;2024-01-11T05:16:22;99094.94;;;-7.57;84.36
83635;BME280;73596;49.482;11.238;2024-01-11T05:18:48;99094.06;;;-7.59;84.15
83635;BME280;73596;49.482;11.238;2024-01-11T05:21:13;99099.94;;;-7.57;84.91
83635;BME280;73596;49.482;11.238;2024-01-11T05:23:43;99089.84;;;-7.62;84.30
83635;BME280;73596;49.482;11.238;2024-01-11T05:26:09;99096.53;;;-7.61;83.79
83635;BME280;73596;49.482;11.238;2024-01-11T05:28:35;99097.31;;;-7.65;83.46
83635;BME280;73596;49.482;11.238;2024-01-11T05:31:00;99111.50;;;-7.67;84.98
83635;BME280;73596;49.482;11.238;2024-01-11T05:33:25;99106.47;;;-7.67;85.60
83635;BME280;73596;49.482;11.238;2024-01-11T05:35:51;99108.91;;;-7.70;85.91
83635;BME280;73596;49.482;11.238;2024-01-11T05:38:17;99097.16;;;-7.74;85.83
83635;BME280;73596;49.482;11.238;2024-01-11T05:40:42;99098.72;;;-7.79;85.97
83635;BME280;73596;49.482;11.238;2024-01-11T05:43:07;99103.72;;;-7.81;86.23
83635;BME280;73596;49.482;11.238;2024-01-11T05:45:32;99104.53;;;-7.82;86.48
83635;BME280;73596;49.482;11.238;2024-01-11T05:47:59;99112.88;;;-7.83;86.31
83635;BME280;73596;49.482;11.238;2024-01-11T05:50:24;99101.06;;;-7.88;86.26
83635;BME280;73596;49.482;11.238;2024-01-11T05:52:50;99109.47;;;-7.86;86.11
83635;BME280;73596;49.482;11.238;2024-01-11T05:55:16;99106.81;;;-7.94;85.66
83635;BME280;73596;49.482;11.238;2024-01-11T05:57:41;99116.91;;;-7.89;85.93
83635;BME280;73596;49.482;11.238;2024-01-11T06:00:07;99112.69;;;-7.92;85.52
83635;BME280;73596;49.482;11.238;2024-01-11T06:02:32;99114.41;;;-7.91;85.89
83635;BME280;73596;49.482;11.238;2024-01-11T06:04:57;99116.03;;;-7.93;85.88
83635;BME280;73596;49.482;11.238;2024-01-11T06:07:22;99108.47;;;-7.94;86.00
83635;BME280;73596;49.482;11.238;2024-01-11T06:09:48;99114.34;;;-7.94;86.53
83635;BME280;73596;49.482;11.238;2024-01-11T06:12:14;99127.72;;;-7.95;86.60
83635;BME280;73596;49.482;11.238;2024-01-11T06:14:39;99112.66;;;-7.95;86.91
83635;BME280;73596;49.482;11.238;2024-01-11T06:17:04;99112.63;;;-7.96;86.81
83635;BME280;73596;49.482;11.238;2024-01-11T06:19:30;99117.56;;;-7.99;86.09
83635;BME280;73596;49.482;11.238;2024-01-11T06:21:55;99121.72;;;-8.01;85.86
83635;BME280;73596;49.482;11.238;2024-01-11T06:24:20;99121.66;;;-8.04;86.01
83635;BME280;73596;49.482;11.238;2024-01-11T06:26:45;99123.28;;;-8.06;85.69
83635;BME280;73596;49.482;11.238;2024-01-11T06:29:11;99126.56;;;-8.10;86.42
83635;BME280;73596;49.482;11.238;2024-01-11T06:31:36;99131.53;;;-8.12;86.73
83635;BME280;73596;49.482;11.238;2024-01-11T06:34:01;99133.22;;;-8.12;87.08
83635;BME280;73596;49.482;11.238;2024-01-11T06:36:27;99139.81;;;-8.17;86.94
83635;BME280;73596;49.482;11.238;2024-01-11T06:38:52;99150.56;;;-8.21;86.90
83635;BME280;73596;49.482;11.238;2024-01-11T06:41:17;99157.19;;;-8.25;86.83
83635;BME280;73596;49.482;11.238;2024-01-11T06:43:42;99168.03;;;-8.27;86.64
83635;BME280;73596;49.482;11.238;2024-01-11T06:46:08;99169.59;;;-8.32;86.75
83635;BME280;73596;49.482;11.238;2024-01-11T06:48:34;99177.91;;;-8.33;86.75
83635;BME280;73596;49.482;11.238;2024-01-11T06:50:59;99172.03;;;-8.35;86.69
83635;BME280;73596;49.482;11.238;2024-01-11T06:53:25;99174.47;;;-8.37;86.21
83635;BME280;73596;49.482;11.238;2024-01-11T06:55:50;99178.63;;;-8.39;85.89
83635;BME280;73596;49.482;11.238;2024-01-11T06:58:17;99180.41;;;-8.35;86.04
83635;BME280;73596;49.482;11.238;2024-01-11T07:00:42;99189.59;;;-8.34;85.86
83635;BME280;73596;49.482;11.238;2024-01-11T07:03:11;99175.38;;;-8.35;85.60
83635;BME280;73596;49.482;11.238;2024-01-11T07:05:36;99171.97;;;-8.37;85.25
83635;BME280;73596;49.482;11.238;2024-01-11T07:08:02;99173.59;;;-8.41;85.03
83635;BME280;73596;49.482;11.238;2024-01-11T07:10:27;99176.16;;;-8.37;84.67
83635;BME280;73596;49.482;11.238;2024-01-11T07:12:53;99167.03;;;-8.34;84.75
83635;BME280;73596;49.482;11.238;2024-01-11T07:15:18;99162.88;;;-8.33;85.09
83635;BME280;73596;49.482;11.238;2024-01-11T07:17:43;99176.19;;;-8.36;85.19
83635;BME280;73596;49.482;11.238;2024-01-11T07:20:09;99181.19;;;-8.37;85.00
83635;BME280;73596;49.482;11.238;2024-01-11T07:22:35;99185.34;;;-8.38;84.81
83635;BME280;73596;49.482;11.238;2024-01-11T07:25:00;99190.34;;;-8.38;85.71
83635;BME280;73596;49.482;11.238;2024-01-11T07:27:26;99181.97;;;-8.40;85.36
83635;BME280;73596;49.482;11.238;2024-01-11T07:29:51;99180.25;;;-8.41;84.67
83635;BME280;73596;49.482;11.238;2024-01-11T07:32:16;99177.59;;;-8.47;85.03
83635;BME280;73596;49.482;11.238;2024-01-11T07:34:41;99193.56;;;-8.42;84.95
83635;BME280;73596;49.482;11.238;2024-01-11T07:37:07;99191.91;;;-8.43;84.67
83635;BME280;73596;49.482;11.238;2024-01-11T07:39:33;99202.00;;;-8.38;84.74
83635;BME280;73596;49.482;11.238;2024-01-11T07:41:59;99206.94;;;-8.42;84.72
83635;BME280;73596;49.482;11.238;2024-01-11T07:44:24;99212.78;;;-8.43;84.88
83635;BME280;73596;49.482;11.238;2024-01-11T07:46:50;99219.47;;;-8.42;85.11
83635;BME280;73596;49.482;11.238;2024-01-11T07:49:15;99217.03;;;-8.40;85.04
83635;BME280;73596;49.482;11.238;2024-01-11T07:51:40;99207.81;;;-8.41;85.20
83635;BME280;73596;49.482;11.238;2024-01-11T07:54:06;99219.53;;;-8.40;85.01
83635;BME280;73596;49.482;11.238;2024-01-11T07:56:31;99221.19;;;-8.41;85.05
83635;BME280;73596;49.482;11.238;2024-01-11T07:58:56;99217.84;;;-8.40;84.55
83635;BME280;73596;49.482;11.238;2024-01-11T08:01:21;99219.53;;;-8.40;84.42
83635;BME280;73596;49.482;11.238;2024-01-11T08:03:47;99233.09;;;-8.30;85.68
83635;BME280;73596;49.482;11.238;2024-01-11T08:06:12;99240.66;;;-8.26;86.54
83635;BME280;73596;49.482;11.238;2024-01-11T08:08:38;99229.72;;;-8.32;86.43
83635;BME280;73596;49.482;11.238;2024-01-11T08:11:09;99241.00;;;-8.50;85.94
83635;BME280;73596;49.482;11.238;2024-01-11T08:13:37;99240.13;;;-8.52;86.31
83635;BME280;73596;49.482;11.238;2024-01-11T08:16:03;99231.28;;;-8.36;87.40
83635;BME280;73596;49.482;11.238;2024-01-11T08:18:30;99231.38;;;-8.31;87.89
83635;BME280;73596;49.482;11.238;2024-01-11T08:20:55;99230.66;;;-8.24;87.83
83635;BME280;73596;49.482;11.238;2024-01-11T08:23:21;99234.09;;;-8.21;88.07
83635;BME280;73596;49.482;11.238;2024-01-11T08:25:46;99225.78;;;-8.20;87.98
83635;BME280;73596;49.482;11.238;2024-01-11T08:28:11;99225.00;;;-8.16;88.18
83635;BME280;73596;49.482;11.238;2024-01-11T08:30:37;99223.44;;;-8.12;88.17
83635;BME280;73596;49.482;11.238;2024-01-11T08:33:02;99210.94;;;-8.09;87.85
83635;BME280;73596;49.482;11.238;2024-01-11T08:35:29;99214.28;;;-8.10;87.99
83635;BME280;73596;49.482;11.238;2024-01-11T08:37:54;99211.00;;;-8.08;88.07
83635;BME280;73596;49.482;11.238;2024-01-11T08:40:20;99208.56;;;-8.03;87.85
83635;BME280;73596;49.482;11.238;2024-01-11T08:42:46;99200.28;;;-7.99;88.18
83635;BME280;73596;49.482;11.238;2024-01-11T08:45:11;99198.75;;;-7.93;88.03
83635;BME280;73596;49.482;11.238;2024-01-11T08:47:43;99193.84;;;-7.87;88.23
83635;BME280;73596;49.482;11.238;2024-01-11T08:50:12;99190.56;;;-7.84;87.87
83635;BME280;73596;49.482;11.238;2024-01-11T08:52:37;99185.69;;;-7.77;87.59
83635;BME280;73596;49.482;11.238;2024-01-11T08:55:04;99183.56;;;-7.57;90.15
83635;BME280;73596;49.482;11.238;2024-01-11T08:57:30;99177.97;;;-7.42;90.42
83635;BME280;73596;49.482;11.238;2024-01-11T08:59:55;99161.59;;;-7.21;89.69
83635;BME280;73596;49.482;11.238;2024-01-11T09:02:20;99155.09;;;-7.08;88.75
83635;BME280;73596;49.482;11.238;2024-01-11T09:04:46;99166.09;;;-7.01;87.56
83635;BME280;73596;49.482;11.238;2024-01-11T09:07:12;99171.31;;;-6.89;88.21
83635;BME280;73596;49.482;11.238;2024-01-11T09:09:37;99164.03;;;-6.71;87.39
83635;BME280;73596;49.482;11.238;2024-01-11T09:12:03;99170.88;;;-6.61;87.37
83635;BME280;73596;49.482;11.238;2024-01-11T09:14:28;99181.94;;;-6.49;86.83
83635;BME280;73596;49.482;11.238;2024-01-11T09:16:54;99178.75;;;-6.37;86.14
83635;BME280;73596;49.482;11.238;2024-01-11T09:19:20;99174.59;;;-6.35;85.89
83635;BME280;73596;49.482;11.238;2024-01-11T09:21:45;99172.09;;;-6.35;85.42
83635;BME280;73596;49.482;11.238;2024-01-11T09:24:10;99159.63;;;-6.27;85.38
83635;BME280;73596;49.482;11.238;2024-01-11T09:26:35;99178.13;;;-6.19;85.30
83635;BME280;73596;49.482;11.238;2024-01-11T09:29:01;99184.16;;;-6.08;85.53
83635;BME280;73596;49.482;11.238;2024-01-11T09:31:27;99194.31;;;-6.02;85.21
83635;BME280;73596;49.482;11.238;2024-01-11T09:33:52;99197.00;;;-5.83;85.82
83635;BME280;73596;49.482;11.238;2024-01-11T09:36:18;99194.63;;;-5.69;84.93
83635;BME280;73596;49.482;11.238;2024-01-11T09:38:43;99212.38;;;-5.58;85.23
83635;BME280;73596;49.482;11.238;2024-01-11T09:41:11;99218.41;;;-5.43;83.95
83635;BME280;73596;49.482;11.238;2024-01-11T09:43:37;99207.63;;;-5.28;83.75
83635;BME280;73596;49.482;11.238;2024-01-11T09:46:04;99198.50;;;-5.22;82.89
83635;BME280;73596;49.482;11.238;2024-01-11T09:48:34;99194.44;;;-5.03;83.08
83635;BME280;73596;49.482;11.238;2024-01-11T09:51:01;99189.59;;;-4.82;83.46
83635;BME280;73596;49.482;11.238;2024-01-11T09:53:28;99170.34;;;-4.68;81.92
83635;BME280;73596;49.482;11.238;2024-01-11T09:55:53;99156.94;;;-4.68;81.14
83635;BME280;73596;49.482;11.238;2024-01-11T09:58:21;99156.88;;;-4.73;79.35
83635;BME280;73596;49.482;11.238;2024-01-11T10:00:49;99174.56;;;-4.68;80.44
83635;BME280;73596;49.482;11.238;2024-01-11T10:03:18;99177.13;;;-4.58;80.51
83635;BME280;73596;49.482;11.238;2024-01-11T10:05:44;99170.50;;;-4.48;79.17
83635;BME280;73596;49.482;11.238;2024-01-11T10:08:10;99187.34;;;-4.36;79.27
83635;BME280;73596;49.482;11.238;2024-01-11T10:10:36;99184.03;;;-4.29;78.61
83635;BME280;73596;49.482;11.238;2024-01-11T10:13:01;99188.22;;;-4.30;78.28
83635;BME280;73596;49.482;11.238;2024-01-11T10:15:26;99205.06;;;-4.29;77.64
83635;BME280;73596;49.482;11.238;2024-01-11T10:17:52;99206.81;;;-4.16;78.09
83635;BME280;73596;49.482;11.238;2024-01-11T10:20:17;99201.00;;;-4.03;76.78
83635;BME280;73596;49.482;11.238;2024-01-11T10:22:43;99212.81;;;-3.96;77.29
83635;BME280;73596;49.482;11.238;2024-01-11T10:27:36;99202.75;;;-3.83;76.92
83635;BME280;73596;49.482;11.238;2024-01-11T10:30:02;99191.88;;;-3.66;75.18
83635;BME280;73596;49.482;11.238;2024-01-11T10:32:28;99194.44;;;-3.60;75.56
83635;BME280;73596;49.482;11.238;2024-01-11T10:34:53;99191.06;;;-3.60;76.38
83635;BME280;73596;49.482;11.238;2024-01-11T10:37:20;99178.47;;;-3.54;76.64
83635;BME280;73596;49.482;11.238;2024-01-11T10:39:46;99175.13;;;-3.28;75.84
83635;BME280;73596;49.482;11.238;2024-01-11T10:42:17;99170.06;;;-3.31;75.02
83635;BME280;73596;49.482;11.238;2024-01-11T10:44:48;99165.03;;;-3.37;75.76
83635;BME280;73596;49.482;11.238;2024-01-11T10:47:15;99165.03;;;-3.37;75.75
83635;BME280;73596;49.482;11.238;2024-01-11T10:49:43;99172.59;;;-3.03;74.20
83635;BME280;73596;49.482;11.238;2024-01-11T10:52:11;99147.34;;;-2.84;73.18
83635;BME280;73596;49.482;11.238;2024-01-11T10:54:39;99155.78;;;-2.89;73.56
83635;BME280;73596;49.482;11.238;2024-01-11T10:57:05;99165.88;;;-2.94;73.01
83635;BME280;73596;49.482;11.238;2024-01-11T10:59:34;99164.19;;;-2.87;72.91
83635;BME280;73596;49.482;11.238;2024-01-11T11:02:04;99158.28;;;-2.82;72.80
83635;BME280;73596;49.482;11.238;2024-01-11T11:04:32;99146.47;;;-2.62;72.34
83635;BME280;73596;49.482;11.238;2024-01-11T11:07:01;99151.53;;;-2.59;72.02
83635;BME280;73596;49.482;11.238;2024-01-11T11:09:27;99152.38;;;-2.57;72.57
83635;BME280;73596;49.482;11.238;2024-01-11T11:11:58;99150.69;;;-2.59;71.56
83635;BME280;73596;49.482;11.238;2024-01-11T11:14:24;99156.56;;;-2.52;71.31
83635;BME280;73596;49.482;11.238;2024-01-11T11:16:50;99148.13;;;-2.47;70.88
83635;BME280;73596;49.482;11.238;2024-01-11T11:19:17;99135.47;;;-2.44;69.85
83635;BME280;73596;49.482;11.238;2024-01-11T11:21:44;99136.28;;;-2.28;69.54
83635;BME280;73596;49.482;11.238;2024-01-11T11:24:10;99137.16;;;-2.35;69.92
83635;BME280;73596;49.482;11.238;2024-01-11T11:26:35;99121.09;;;-2.34;70.60
83635;BME280;73596;49.482;11.238;2024-01-11T11:29:01;99120.28;;;-2.39;70.76
83635;BME280;73596;49.482;11.238;2024-01-11T11:31:43;99110.97;;;-2.28;70.59
83635;BME280;73596;49.482;11.238;2024-01-11T11:34:11;99113.44;;;-2.12;69.17
83635;BME280;73596;49.482;11.238;2024-01-11T11:36:36;99125.19;;;-2.02;69.68
83635;BME280;73596;49.482;11.238;2024-01-11T11:39:02;99132.66;;;-1.74;69.02
83635;BME280;73596;49.482;11.238;2024-01-11T11:41:30;99137.72;;;-1.70;68.08
83635;BME280;73596;49.482;11.238;2024-01-11T11:44:00;99135.16;;;-1.71;68.51
83635;BME280;73596;49.482;11.238;2024-01-11T11:46:26;99130.91;;;-1.66;67.86
83635;BME280;73596;49.482;11.238;2024-01-11T11:48:52;99131.72;;;-1.61;67.78
83635;BME280;73596;49.482;11.238;2024-01-11T11:51:19;99126.69;;;-1.60;67.77
83635;BME280;73596;49.482;11.238;2024-01-11T11:53:46;99125.75;;;-1.51;67.15
83635;BME280;73596;49.482;11.238;2024-01-11T11:56:12;99122.38;;;-1.47;66.71
83635;BME280;73596;49.482;11.238;2024-01-11T11:58:40;99124.88;;;-1.46;67.14
83635;BME280;73596;49.482;11.238;2024-01-11T12:01:05;99111.31;;;-1.39;66.77
83635;BME280;73596;49.482;11.238;2024-01-11T12:03:35;99097.81;;;-1.39;67.87
83635;BME280;73596;49.482;11.238;2024-01-11T12:06:07;99108.84;;;-1.45;67.18
83635;BME280;73596;49.482;11.238;2024-01-11T12:08:34;99104.63;;;-1.46;67.52
83635;BME280;73596;49.482;11.238;2024-01-11T12:11:00;99095.38;;;-1.50;67.05
83635;BME280;73596;49.482;11.238;2024-01-11T12:13:26;99106.44;;;-1.63;68.65
83635;BME280;73596;49.482;11.238;2024-01-11T12:15:51;99097.88;;;-1.51;67.60
83635;BME280;73596;49.482;11.238;2024-01-11T12:18:17;99089.38;;;-1.41;67.18
83635;BME280;73596;49.482;11.238;2024-01-11T12:20:42;99094.38;;;-1.32;66.49
83635;BME280;73596;49.482;11.238;2024-01-11T12:23:07;99097.75;;;-1.30;66.45
83635;BME280;73596;49.482;11.238;2024-01-11T12:25:33;99099.38;;;-1.21;66.56
83635;BME280;73596;49.482;11.238;2024-01-11T12:27:58;99095.91;;;-1.11;65.58
83635;BME280;73596;49.482;11.238;2024-01-11T12:30:25;99089.91;;;-1.03;65.89
83635;BME280;73596;49.482;11.238;2024-01-11T12:32:51;99089.03;;;-0.99;66.05
83635;BME280;73596;49.482;11.238;2024-01-11T12:35:17;99081.41;;;-0.97;66.62
83635;BME280;73596;49.482;11.238;2024-01-11T12:38:03;99084.00;;;-1.02;66.71
83635;BME280;73596;49.482;11.238;2024-01-11T12:40:34;99077.38;;;-1.18;66.98
83635;BME280;73596;49.482;11.238;2024-01-11T12:43:00;99079.09;;;-1.23;67.78
83635;BME280;73596;49.482;11.238;2024-01-11T12:45:25;99069.75;;;-1.18;67.79